Time;durP1;ratioP1;P1;durP2;ratioP2;P2;SDS_P1;SDS_P2;PMS_P1;PMS_P2;Temp;Humidity;BMP_temperature;BMP_pressure;BME280_temperature;BME280_humidity;BME280_pressure;Samples;Min_cycle;Max_cycle;Signal;HPM_P1;HPM_P2
2023/12/28 00:00:50;;;;;;;;;;;-1.50;99.90;;;;;;5074238;28;19924;-74
2023/12/28 00:03:16;;;;;;;;;;;-1.50;99.90;;;;;;5074102;28;19924;-74
2023/12/28 00:05:43;;;;;;;;;;;-1.60;99.90;;;;;;5074145;28;19925;-74
2023/12/28 00:08:09;;;;;;;;;;;-1.60;99.90;;;;;;5074031;28;19932;-74
2023/12/28 00:10:36;;;;;;;;;;;-1.60;99.90;;;;;;5074118;28;19928;-74
2023/12/28 00:13:03;;;;;;;;;;;-1.60;99.90;;;;;;5073916;28;19925;-74
2023/12/28 00:15:31;;;;;;;;;;;-1.60;99.90;;;;;;5074034;28;19924;-74
2023/12/28 00:17:57;;;;;;;;;;;-1.60;99.90;;;;;;5073848;28;19932;-74
2023/12/28 00:20:24;;;;;;;;;;;-1.70;99.90;;;;;;5074140;28;19935;-74
2023/12/28 00:22:51;;;;;;;;;;;-1.70;99.90;;;;;;5073635;28;20396;-74
2023/12/28 00:25:17;;;;;;;;;;;-1.70;99.90;;;;;;5073946;28;19929;-74
2023/12/28 00:27:45;;;;;;;;;;;-1.70;99.90;;;;;;5073889;28;19931;-74
2023/12/28 00:30:13;;;;;;;;;;;-1.70;99.90;;;;;;5073786;28;20348;-74
2023/12/28 00:32:43;;;;;;;;;;;-1.70;99.90;;;;;;5073937;28;19929;-74
2023/12/28 00:35:09;;;;;;;;;;;-1.70;99.90;;;;;;5073778;28;19924;-75
2023/12/28 00:37:36;;;;;;;;;;;-1.70;99.90;;;;;;5073784;28;19935;-75
2023/12/28 00:40:03;;;;;;;;;;;-1.70;99.90;;;;;;5073795;28;19931;-74
2023/12/28 00:42:29;;;;;;;;;;;-1.70;99.90;;;;;;5073784;28;19978;-74
2023/12/28 00:44:56;;;;;;;;;;;-1.70;99.90;;;;;;5073769;28;19936;-74
2023/12/28 00:47:22;;;;;;;;;;;-1.70;99.90;;;;;;5073681;28;19924;-74
2023/12/28 00:49:50;;;;;;;;;;;-1.70;99.90;;;;;;5073280;28;19928;-74
2023/12/28 00:52:17;;;;;;;;;;;-1.70;99.90;;;;;;5073486;28;19931;-74
2023/12/28 00:54:43;;;;;;;;;;;-1.70;99.90;;;;;;5073634;28;19924;-74
2023/12/28 00:57:10;;;;;;;;;;;-1.70;99.90;;;;;;5073666;28;19928;-76
2023/12/28 00:59:37;;;;;;;;;;;-1.80;99.90;;;;;;5073687;28;19928;-76
2023/12/28 01:02:03;;;;;;;;;;;-1.80;99.90;;;;;;5073322;28;20016;-76
2023/12/28 01:04:30;;;;;;;;;;;-1.80;99.90;;;;;;5075351;28;19948;-76
2023/12/28 01:06:58;;;;;;;;;;;-1.80;99.90;;;;;;5076724;28;20385;-76
2023/12/28 01:09:24;;;;;;;;;;;-1.80;99.90;;;;;;5077061;28;20019;-75
2023/12/28 01:11:51;;;;;;;;;;;-1.70;99.90;;;;;;5076764;28;20382;-74
2023/12/28 01:14:18;;;;;;;;;;;-1.70;99.90;;;;;;5076729;28;20381;-74
2023/12/28 01:16:44;;;;;;;;;;;-1.70;99.90;;;;;;5077367;28;19928;-72
2023/12/28 01:19:11;;;;;;;;;;;-1.70;99.90;;;;;;5076817;28;19970;-74
2023/12/28 01:21:38;;;;;;;;;;;-1.70;99.90;;;;;;5076661;28;19924;-74
2023/12/28 01:24:06;;;;;;;;;;;-1.70;99.90;;;;;;5077359;28;19924;-74
2023/12/28 01:26:34;;;;;;;;;;;-1.70;99.90;;;;;;5076747;28;19925;-74
2023/12/28 01:29:02;;;;;;;;;;;-1.80;99.90;;;;;;5076436;28;19931;-74
2023/12/28 01:31:29;;;;;;;;;;;-1.80;99.90;;;;;;5076551;28;20323;-73
2023/12/28 01:33:55;;;;;;;;;;;-1.80;99.90;;;;;;5076853;28;19924;-72
2023/12/28 01:36:22;;;;;;;;;;;-1.70;99.90;;;;;;5076423;28;19924;-72
2023/12/28 01:38:49;;;;;;;;;;;-1.70;99.90;;;;;;5076512;28;20289;-72
2023/12/28 01:41:17;;;;;;;;;;;-1.70;99.90;;;;;;5076449;28;19928;-73
2023/12/28 01:43:44;;;;;;;;;;;-1.70;99.90;;;;;;5076338;28;19925;-73
2023/12/28 01:46:13;;;;;;;;;;;-1.70;99.90;;;;;;5075937;28;20389;-73
2023/12/28 01:48:40;;;;;;;;;;;-1.70;99.90;;;;;;5075959;28;19929;-73
2023/12/28 01:51:07;;;;;;;;;;;-1.70;99.90;;;;;;5076423;28;19932;-73
2023/12/28 01:53:33;;;;;;;;;;;-1.70;99.90;;;;;;5076507;28;19948;-73
2023/12/28 01:56:00;;;;;;;;;;;-1.70;99.90;;;;;;5076341;28;19924;-74
2023/12/28 01:58:28;;;;;;;;;;;-1.70;99.90;;;;;;5089686;28;19939;-74
2023/12/28 02:00:56;;;;;;;;;;;-1.70;99.90;;;;;;5092461;28;19924;-74
2023/12/28 02:03:23;;;;;;;;;;;-1.70;99.90;;;;;;5087759;28;19909;-74
2023/12/28 02:05:49;;;;;;;;;;;-1.80;99.90;;;;;;5076076;28;19931;-74
2023/12/28 02:08:16;;;;;;;;;;;-1.80;99.90;;;;;;5075846;28;19928;-74
2023/12/28 02:10:43;;;;;;;;;;;-1.80;99.90;;;;;;5075856;28;19928;-74
2023/12/28 02:13:09;;;;;;;;;;;-1.80;99.90;;;;;;5075632;28;19924;-74
2023/12/28 02:15:36;;;;;;;;;;;-1.80;99.90;;;;;;5075484;28;20404;-73
2023/12/28 02:18:07;;;;;;;;;;;-1.80;99.90;;;;;;5075668;28;19966;-73
2023/12/28 02:20:35;;;;;;;;;;;-1.80;99.90;;;;;;5075543;28;19928;-73
2023/12/28 02:23:02;;;;;;;;;;;-1.90;99.90;;;;;;5075259;28;20390;-73
2023/12/28 02:25:30;;;;;;;;;;;-1.90;99.90;;;;;;5075594;28;19985;-73
2023/12/28 02:27:56;;;;;;;;;;;-1.90;99.90;;;;;;5075447;28;19924;-73
2023/12/28 02:30:24;;;;;;;;;;;-1.90;99.90;;;;;;5075439;28;19925;-73
2023/12/28 02:32:54;;;;;;;;;;;-1.90;99.90;;;;;;5075474;28;19974;-72
2023/12/28 02:35:24;;;;;;;;;;;-1.90;99.90;;;;;;5075249;28;19947;-73
2023/12/28 02:37:53;;;;;;;;;;;-1.90;99.90;;;;;;5075320;28;19932;-73
2023/12/28 02:40:20;;;;;;;;;;;-1.90;99.90;;;;;;5075388;28;19968;-73
2023/12/28 02:42:48;;;;;;;;;;;-1.80;99.90;;;;;;5075264;28;19931;-73
2023/12/28 02:45:14;;;;;;;;;;;-1.80;99.90;;;;;;5075405;28;19928;-73
2023/12/28 02:47:41;;;;;;;;;;;-1.90;99.90;;;;;;5074964;28;19932;-74
2023/12/28 02:50:08;;;;;;;;;;;-1.90;99.90;;;;;;5075838;28;19935;-74
2023/12/28 02:52:34;;;;;;;;;;;-1.90;99.90;;;;;;5075696;28;19924;-74
2023/12/28 02:55:01;;;;;;;;;;;-1.90;99.90;;;;;;5076033;28;19932;-74
2023/12/28 02:57:27;;;;;;;;;;;-1.90;99.90;;;;;;5077130;28;19925;-74
2023/12/28 02:59:56;;;;;;;;;;;-1.90;99.90;;;;;;5076492;28;20385;-73
2023/12/28 03:02:23;;;;;;;;;;;-2.00;99.90;;;;;;5075474;28;19924;-73
2023/12/28 03:04:49;;;;;;;;;;;-2.00;99.90;;;;;;5074868;28;19924;-74
2023/12/28 03:07:16;;;;;;;;;;;-2.00;99.90;;;;;;5074756;28;19925;-74
2023/12/28 03:09:42;;;;;;;;;;;-1.90;99.90;;;;;;5074685;28;19925;-73
2023/12/28 03:12:09;;;;;;;;;;;-1.90;99.90;;;;;;5075129;28;19931;-73
2023/12/28 03:14:36;;;;;;;;;;;-1.90;99.90;;;;;;5076595;28;20019;-72
2023/12/28 03:17:04;;;;;;;;;;;-1.90;99.90;;;;;;5075951;28;19924;-72
2023/12/28 03:19:30;;;;;;;;;;;-1.90;99.90;;;;;;5075627;28;19924;-73
2023/12/28 03:21:57;;;;;;;;;;;-1.90;99.90;;;;;;5074855;28;19929;-73
2023/12/28 03:24:23;;;;;;;;;;;-1.80;99.90;;;;;;5074830;28;19932;-73
2023/12/28 03:26:50;;;;;;;;;;;-1.80;99.90;;;;;;5074435;28;19947;-73
2023/12/28 03:29:17;;;;;;;;;;;-1.90;99.90;;;;;;5074946;28;19925;-73
2023/12/28 03:31:43;;;;;;;;;;;-1.90;99.90;;;;;;5075397;28;19931;-73
2023/12/28 03:34:11;;;;;;;;;;;-1.90;99.90;;;;;;5075358;28;19925;-73
2023/12/28 03:36:38;;;;;;;;;;;-2.10;99.90;;;;;;5075181;28;19929;-73
2023/12/28 03:39:05;;;;;;;;;;;-2.00;99.90;;;;;;5074806;28;19924;-73
2023/12/28 03:41:31;;;;;;;;;;;-2.10;99.90;;;;;;5074742;28;19931;-73
2023/12/28 03:43:58;;;;;;;;;;;-2.00;99.90;;;;;;5074600;28;20386;-74
2023/12/28 03:46:25;;;;;;;;;;;-2.10;99.90;;;;;;5074853;28;19925;-74
2023/12/28 03:48:52;;;;;;;;;;;-2.10;99.90;;;;;;5074590;28;19925;-74
2023/12/28 03:51:19;;;;;;;;;;;-2.10;99.90;;;;;;5074803;28;19951;-72
2023/12/28 03:53:46;;;;;;;;;;;-2.10;99.90;;;;;;5074319;28;19924;-72
2023/12/28 03:56:19;;;;;;;;;;;-2.10;99.90;;;;;;5074157;28;19924;-72
2023/12/28 03:58:45;;;;;;;;;;;-2.20;99.90;;;;;;5074152;28;19925;-72
2023/12/28 04:01:12;;;;;;;;;;;-2.10;99.90;;;;;;5073982;28;19989;-73
2023/12/28 04:03:39;;;;;;;;;;;-2.10;99.90;;;;;;5074099;28;19924;-72
2023/12/28 04:06:06;;;;;;;;;;;-2.10;99.90;;;;;;5073947;28;19930;-72
2023/12/28 04:08:34;;;;;;;;;;;-2.10;99.90;;;;;;5073624;28;20294;-72
2023/12/28 04:11:00;;;;;;;;;;;-2.00;99.90;;;;;;5073698;28;20382;-73
2023/12/28 04:13:27;;;;;;;;;;;-2.00;99.90;;;;;;5073662;28;20408;-73
2023/12/28 04:15:53;;;;;;;;;;;-2.00;99.90;;;;;;5073851;28;19924;-73
2023/12/28 04:18:20;;;;;;;;;;;-2.00;99.90;;;;;;5073941;28;19931;-73
2023/12/28 04:20:46;;;;;;;;;;;-2.00;99.90;;;;;;5073875;28;19932;-73
2023/12/28 04:23:13;;;;;;;;;;;-2.00;99.90;;;;;;5073985;28;19924;-73
2023/12/28 04:25:41;;;;;;;;;;;-2.00;99.90;;;;;;5073772;28;19932;-73
2023/12/28 04:28:07;;;;;;;;;;;-2.00;99.90;;;;;;5073512;28;19924;-73
2023/12/28 04:30:34;;;;;;;;;;;-2.00;99.90;;;;;;5073978;28;19924;-73
2023/12/28 04:33:01;;;;;;;;;;;-2.00;99.90;;;;;;5074523;28;19925;-73
2023/12/28 04:35:27;;;;;;;;;;;-2.00;99.90;;;;;;5073670;28;20381;-73
2023/12/28 04:37:54;;;;;;;;;;;-2.00;99.90;;;;;;5073506;28;20285;-72
2023/12/28 04:40:20;;;;;;;;;;;-2.00;99.90;;;;;;5076886;28;19932;-72
2023/12/28 04:42:48;;;;;;;;;;;-2.00;99.90;;;;;;5077415;28;19987;-73
2023/12/28 04:45:15;;;;;;;;;;;-2.10;99.90;;;;;;5077493;28;19931;-72
2023/12/28 04:47:42;;;;;;;;;;;-2.10;99.90;;;;;;5077001;28;20377;-73
2023/12/28 04:50:08;;;;;;;;;;;-2.10;99.90;;;;;;5077422;28;19924;-72
2023/12/28 04:52:35;;;;;;;;;;;-2.10;99.90;;;;;;5077139;28;19925;-72
2023/12/28 04:55:01;;;;;;;;;;;-2.10;99.90;;;;;;5077232;28;19924;-72
2023/12/28 04:57:28;;;;;;;;;;;-2.20;99.90;;;;;;5077145;28;19931;-73
2023/12/28 04:59:56;;;;;;;;;;;-2.10;99.90;;;;;;5077489;28;19925;-73
2023/12/28 05:02:23;;;;;;;;;;;-2.10;99.90;;;;;;5077244;28;19978;-73
2023/12/28 05:04:49;;;;;;;;;;;-2.10;99.90;;;;;;5077324;28;19928;-73
2023/12/28 05:07:16;;;;;;;;;;;-2.00;99.90;;;;;;5077331;28;19924;-73
2023/12/28 05:09:42;;;;;;;;;;;-2.00;99.90;;;;;;5077561;28;19928;-73
2023/12/28 05:12:09;;;;;;;;;;;-2.00;99.90;;;;;;5084155;28;19928;-73
2023/12/28 05:14:36;;;;;;;;;;;-2.00;99.90;;;;;;5084621;28;19924;-73
2023/12/28 05:17:04;;;;;;;;;;;-2.00;99.90;;;;;;5084928;28;19925;-73
2023/12/28 05:19:30;;;;;;;;;;;-2.00;99.90;;;;;;5083944;28;19931;-73
2023/12/28 05:21:57;;;;;;;;;;;-1.40;99.90;;;;;;5083959;28;20285;-73
2023/12/28 05:24:23;;;;;;;;;;;-2.00;99.90;;;;;;5085668;28;19951;-72
2023/12/28 05:26:50;;;;;;;;;;;-2.00;99.90;;;;;;5088510;28;19971;-72
2023/12/28 05:29:16;;;;;;;;;;;-2.00;99.90;;;;;;5089335;28;19924;-72
2023/12/28 05:31:43;;;;;;;;;;;-2.00;99.90;;;;;;5079117;28;19924;-72
2023/12/28 05:34:11;;;;;;;;;;;-2.00;99.90;;;;;;5076894;28;19928;-72
2023/12/28 05:36:37;;;;;;;;;;;-1.90;99.90;;;;;;5076827;28;19947;-73
2023/12/28 05:39:04;;;;;;;;;;;-1.90;99.90;;;;;;5076949;28;19932;-74
2023/12/28 05:41:31;;;;;;;;;;;-1.90;99.90;;;;;;5076855;28;19931;-74
2023/12/28 05:43:58;;;;;;;;;;;-1.90;99.90;;;;;;5076258;28;20386;-75
2023/12/28 05:46:24;;;;;;;;;;;-1.90;99.90;;;;;;5076510;28;19924;-75
2023/12/28 05:48:51;;;;;;;;;;;-1.80;99.90;;;;;;5076276;28;19924;-75
2023/12/28 05:51:19;;;;;;;;;;;-1.80;99.90;;;;;;5076234;28;20321;-72
2023/12/28 05:53:45;;;;;;;;;;;-1.80;99.90;;;;;;5076302;28;19925;-72
2023/12/28 05:56:12;;;;;;;;;;;-1.80;99.90;;;;;;5076188;28;19931;-73
2023/12/28 05:58:39;;;;;;;;;;;-1.80;99.90;;;;;;5076262;28;19924;-73
2023/12/28 06:01:06;;;;;;;;;;;-1.80;99.90;;;;;;5076128;28;19924;-73
2023/12/28 06:03:32;;;;;;;;;;;-1.80;99.90;;;;;;5076162;28;19932;-73
2023/12/28 06:05:59;;;;;;;;;;;-1.80;99.90;;;;;;5075912;28;20275;-73
2023/12/28 06:08:27;;;;;;;;;;;-1.80;99.90;;;;;;5076104;28;19931;-73
2023/12/28 06:10:53;;;;;;;;;;;-1.80;99.90;;;;;;5076420;28;19928;-73
2023/12/28 06:13:20;;;;;;;;;;;-1.80;99.90;;;;;;5076191;28;19954;-74
2023/12/28 06:15:46;;;;;;;;;;;-1.80;99.90;;;;;;5076273;28;19930;-73
2023/12/28 06:18:13;;;;;;;;;;;-1.80;99.90;;;;;;5075949;28;19933;-74
2023/12/28 06:20:39;;;;;;;;;;;-1.80;99.90;;;;;;5075416;28;20282;-73
2023/12/28 06:23:07;;;;;;;;;;;-1.80;99.90;;;;;;5075609;28;19931;-73
2023/12/28 06:25:35;;;;;;;;;;;-1.80;99.90;;;;;;5075989;28;19924;-73
2023/12/28 06:28:02;;;;;;;;;;;-1.80;99.90;;;;;;5075871;28;19932;-74
2023/12/28 06:30:28;;;;;;;;;;;-1.90;99.90;;;;;;5075674;28;19925;-74
2023/12/28 06:32:55;;;;;;;;;;;-1.80;99.90;;;;;;5075683;28;19971;-73
2023/12/28 06:35:22;;;;;;;;;;;-1.80;99.90;;;;;;5075640;28;19970;-73
2023/12/28 06:37:48;;;;;;;;;;;-1.80;99.90;;;;;;5075309;28;19925;-73
2023/12/28 06:40:15;;;;;;;;;;;-1.80;99.90;;;;;;5075530;28;19932;-73
2023/12/28 06:42:43;;;;;;;;;;;-1.80;99.90;;;;;;5075113;28;19950;-73
2023/12/28 06:45:10;;;;;;;;;;;-1.80;99.90;;;;;;5075262;28;19929;-73
2023/12/28 06:47:36;;;;;;;;;;;-1.80;99.90;;;;;;5075008;28;20340;-74
2023/12/28 06:50:03;;;;;;;;;;;-1.80;99.90;;;;;;5075755;28;19947;-74
2023/12/28 06:52:31;;;;;;;;;;;-1.70;99.90;;;;;;5075221;28;19935;-74
2023/12/28 06:54:58;;;;;;;;;;;-1.80;99.90;;;;;;5074881;28;20413;-75
2023/12/28 06:57:24;;;;;;;;;;;-1.70;99.90;;;;;;5075202;28;19924;-74
2023/12/28 06:59:52;;;;;;;;;;;-1.70;99.90;;;;;;5075128;28;19931;-74
2023/12/28 07:02:19;;;;;;;;;;;-1.70;99.90;;;;;;5074252;28;19931;-74
2023/12/28 07:04:45;;;;;;;;;;;-1.70;99.90;;;;;;5075160;28;19924;-74
2023/12/28 07:07:12;;;;;;;;;;;-1.60;99.90;;;;;;5075006;28;19928;-74
2023/12/28 07:09:38;;;;;;;;;;;-1.60;99.90;;;;;;5075874;28;19924;-74
2023/12/28 07:12:05;;;;;;;;;;;-1.50;99.90;;;;;;5074928;28;19924;-74
2023/12/28 07:14:32;;;;;;;;;;;-1.40;99.90;;;;;;5074437;28;19924;-74
2023/12/28 07:17:00;;;;;;;;;;;-1.40;99.90;;;;;;5074600;28;19925;-75
2023/12/28 07:19:27;;;;;;;;;;;-1.30;99.90;;;;;;5074535;28;19967;-73
2023/12/28 07:21:53;;;;;;;;;;;-1.10;99.90;;;;;;5074716;28;19950;-73
2023/12/28 07:24:20;;;;;;;;;;;-1.00;99.90;;;;;;5074762;28;19947;-72
2023/12/28 07:26:46;;;;;;;;;;;-0.90;99.90;;;;;;5074355;28;20317;-72
2023/12/28 07:29:13;;;;;;;;;;;-0.90;99.90;;;;;;5074033;28;20377;-69
2023/12/28 07:31:39;;;;;;;;;;;-0.70;99.90;;;;;;5074777;28;19928;-72
2023/12/28 07:34:07;;;;;;;;;;;-0.70;99.90;;;;;;5074562;28;19924;-71
2023/12/28 07:36:34;;;;;;;;;;;-0.60;99.90;;;;;;5074518;28;19924;-72
2023/12/28 07:39:00;;;;;;;;;;;-0.60;99.90;;;;;;5074340;28;19925;-73
2023/12/28 07:41:27;;;;;;;;;;;-0.50;99.90;;;;;;5074260;28;19931;-73
2023/12/28 07:43:53;;;;;;;;;;;-0.40;99.90;;;;;;5074279;28;19931;-73
2023/12/28 07:46:20;;;;;;;;;;;-0.40;99.90;;;;;;5074358;28;19948;-72
2023/12/28 07:48:47;;;;;;;;;;;-0.40;99.90;;;;;;5073783;28;19946;-72
2023/12/28 07:51:15;;;;;;;;;;;-0.30;99.90;;;;;;5074245;28;19928;-72
2023/12/28 07:53:41;;;;;;;;;;;-0.30;99.90;;;;;;5074158;28;19935;-72
2023/12/28 07:56:08;;;;;;;;;;;-0.20;99.90;;;;;;5074208;28;19925;-72
2023/12/28 07:58:37;;;;;;;;;;;-0.20;99.90;;;;;;5074195;28;19931;-72
2023/12/28 08:01:03;;;;;;;;;;;-0.10;99.90;;;;;;5074166;28;19970;-73
2023/12/28 08:03:30;;;;;;;;;;;-0.10;99.90;;;;;;5074005;28;19925;-72
2023/12/28 08:05:57;;;;;;;;;;;0.00;99.90;;;;;;5074069;28;19924;-72
2023/12/28 08:08:25;;;;;;;;;;;0.10;99.90;;;;;;5074118;28;19925;-72
2023/12/28 08:10:51;;;;;;;;;;;0.10;99.90;;;;;;5074238;28;19928;-74
2023/12/28 08:13:18;;;;;;;;;;;0.20;99.90;;;;;;5075640;28;19974;-75
2023/12/28 08:15:46;;;;;;;;;;;0.20;99.90;;;;;;5078156;28;19932;-73
2023/12/28 08:18:13;;;;;;;;;;;0.20;99.90;;;;;;5077921;28;19924;-72
2023/12/28 08:20:39;;;;;;;;;;;0.30;99.90;;;;;;5077755;28;20385;-70
2023/12/28 08:23:06;;;;;;;;;;;0.30;99.90;;;;;;5077419;28;20298;-73
2023/12/28 08:25:34;;;;;;;;;;;0.50;99.90;;;;;;5077932;28;19947;-72
2023/12/28 08:28:01;;;;;;;;;;;0.50;99.90;;;;;;5077818;28;19924;-75
2023/12/28 08:30:28;;;;;;;;;;;0.60;99.90;;;;;;5077756;28;19970;-73
2023/12/28 08:32:54;;;;;;;;;;;0.60;99.90;;;;;;5077804;28;19950;-74
2023/12/28 08:35:21;;;;;;;;;;;0.60;99.90;;;;;;5077532;28;19978;-74
2023/12/28 08:37:48;;;;;;;;;;;0.70;99.90;;;;;;5077631;28;19978;-76
2023/12/28 08:40:14;;;;;;;;;;;0.70;99.90;;;;;;5077456;28;19932;-74
2023/12/28 08:42:42;;;;;;;;;;;0.80;99.90;;;;;;5077309;28;19928;-74
2023/12/28 08:45:09;;;;;;;;;;;0.70;99.90;;;;;;5077503;28;19928;-74
2023/12/28 08:47:35;;;;;;;;;;;0.70;99.90;;;;;;5076993;28;19924;-74
2023/12/28 08:50:02;;;;;;;;;;;0.70;99.90;;;;;;5088738;23;19931;-74
2023/12/28 08:52:29;;;;;;;;;;;0.60;99.90;;;;;;5076708;28;19931;-74
2023/12/28 08:54:56;;;;;;;;;;;0.60;99.90;;;;;;5077098;28;19962;-74
2023/12/28 08:57:22;;;;;;;;;;;0.60;99.90;;;;;;5076694;28;20340;-74
2023/12/28 08:59:50;;;;;;;;;;;0.60;99.90;;;;;;5077005;28;19925;-75
2023/12/28 09:02:16;;;;;;;;;;;0.60;99.90;;;;;;5076592;28;20297;-74
2023/12/28 09:04:42;;;;;;;;;;;0.60;99.90;;;;;;5077100;28;19932;-74
2023/12/28 09:07:09;;;;;;;;;;;0.60;99.90;;;;;;5076875;28;19924;-74
2023/12/28 09:09:36;;;;;;;;;;;0.70;99.90;;;;;;5076874;28;19970;-75
2023/12/28 09:12:02;;;;;;;;;;;0.70;99.90;;;;;;5076711;28;19924;-74
2023/12/28 09:14:31;;;;;;;;;;;0.70;99.90;;;;;;5076429;28;19944;-74
2023/12/28 09:16:59;;;;;;;;;;;0.70;99.90;;;;;;5076255;28;20453;-74
2023/12/28 09:19:25;;;;;;;;;;;0.70;99.90;;;;;;5076220;28;20408;-73
2023/12/28 09:21:52;;;;;;;;;;;0.80;99.90;;;;;;5076140;28;20392;-73
2023/12/28 09:24:19;;;;;;;;;;;0.80;99.90;;;;;;5075467;28;19925;-73
2023/12/28 09:26:45;;;;;;;;;;;1.00;99.90;;;;;;5076134;28;20412;-74
2023/12/28 09:29:12;;;;;;;;;;;1.00;99.90;;;;;;5076451;28;19925;-73
2023/12/28 09:31:38;;;;;;;;;;;1.20;99.90;;;;;;5076407;28;19924;-73
2023/12/28 09:34:06;;;;;;;;;;;1.30;99.90;;;;;;5076364;28;19924;-73
2023/12/28 09:36:33;;;;;;;;;;;1.40;99.90;;;;;;5076375;28;20093;-74
2023/12/28 09:39:00;;;;;;;;;;;1.50;99.90;;;;;;5076214;28;19931;-74
2023/12/28 09:41:27;;;;;;;;;;;1.50;99.90;;;;;;5076027;28;20293;-74
2023/12/28 09:43:54;;;;;;;;;;;1.50;99.90;;;;;;5076112;28;19935;-75
2023/12/28 09:46:21;;;;;;;;;;;1.50;99.90;;;;;;5076168;28;19925;-75
2023/12/28 09:48:48;;;;;;;;;;;1.50;99.90;;;;;;5076154;28;19924;-75
2023/12/28 09:51:17;;;;;;;;;;;1.60;99.90;;;;;;5075755;28;20393;-75
2023/12/28 09:53:44;;;;;;;;;;;1.60;99.90;;;;;;5076026;28;19929;-75
2023/12/28 09:56:10;;;;;;;;;;;1.60;99.90;;;;;;5075755;28;19925;-75
2023/12/28 09:58:37;;;;;;;;;;;1.70;99.90;;;;;;5075999;28;19932;-75
2023/12/28 10:01:04;;;;;;;;;;;1.70;99.90;;;;;;5075630;28;20385;-75
2023/12/28 10:03:30;;;;;;;;;;;1.80;99.90;;;;;;5075720;28;19925;-75
2023/12/28 10:05:56;;;;;;;;;;;2.00;99.90;;;;;;5075927;28;19932;-75
2023/12/28 10:08:24;;;;;;;;;;;2.00;99.90;;;;;;5075663;28;19921;-75
2023/12/28 10:10:53;;;;;;;;;;;2.10;99.90;;;;;;5076289;28;19925;-74
2023/12/28 10:13:20;;;;;;;;;;;2.20;99.90;;;;;;5077076;28;19982;-75
2023/12/28 10:15:47;;;;;;;;;;;2.30;99.90;;;;;;5077904;28;20293;-75
2023/12/28 10:18:14;;;;;;;;;;;2.30;99.90;;;;;;5095948;28;19934;-75
2023/12/28 10:20:40;;;;;;;;;;;2.40;99.90;;;;;;5099655;28;19908;-75
2023/12/28 10:23:07;;;;;;;;;;;2.40;99.90;;;;;;5099376;28;19909;-75
2023/12/28 10:25:36;;;;;;;;;;;2.40;99.90;;;;;;5100023;28;19939;-74
2023/12/28 10:28:04;;;;;;;;;;;2.50;99.90;;;;;;5099820;28;19913;-75
2023/12/28 10:30:31;;;;;;;;;;;2.50;99.90;;;;;;5097521;28;19931;-74
2023/12/28 10:32:58;;;;;;;;;;;2.60;99.90;;;;;;5075900;28;19932;-75
2023/12/28 10:35:25;;;;;;;;;;;2.60;99.90;;;;;;5075422;28;19931;-75
2023/12/28 10:37:53;;;;;;;;;;;2.60;99.90;;;;;;5074325;28;19925;-75
2023/12/28 10:40:21;;;;;;;;;;;2.70;99.90;;;;;;5075270;28;19966;-74
2023/12/28 10:42:52;;;;;;;;;;;2.80;99.90;;;;;;5075124;28;19925;-74
2023/12/28 10:45:21;;;;;;;;;;;2.80;99.90;;;;;;5075479;28;20011;-74
2023/12/28 10:47:56;;;;;;;;;;;2.80;99.90;;;;;;5075074;28;19931;-74
2023/12/28 10:50:23;;;;;;;;;;;2.70;99.90;;;;;;5074670;28;19969;-74
2023/12/28 10:52:54;;;;;;;;;;;2.70;99.90;;;;;;5074866;28;19928;-74
2023/12/28 10:55:26;;;;;;;;;;;2.80;99.90;;;;;;5074592;28;20297;-74
2023/12/28 10:57:59;;;;;;;;;;;2.90;99.90;;;;;;5074821;28;19924;-75
2023/12/28 11:00:26;;;;;;;;;;;2.80;99.90;;;;;;5074758;28;19931;-75
2023/12/28 11:02:54;;;;;;;;;;;2.80;99.90;;;;;;5074611;28;19924;-75
2023/12/28 11:05:21;;;;;;;;;;;2.90;99.90;;;;;;5074323;28;20389;-75
2023/12/28 11:07:48;;;;;;;;;;;2.80;99.90;;;;;;5074811;28;19924;-75
2023/12/28 11:10:17;;;;;;;;;;;2.90;99.90;;;;;;5074627;28;19994;-75
2023/12/28 11:12:44;;;;;;;;;;;2.90;99.90;;;;;;5075316;28;20007;-75
2023/12/28 11:15:13;;;;;;;;;;;2.90;99.90;;;;;;5075090;28;20015;-75
2023/12/28 11:17:40;;;;;;;;;;;3.00;99.90;;;;;;5074788;28;20412;-75
2023/12/28 11:20:07;;;;;;;;;;;3.10;99.90;;;;;;5074332;28;19924;-74
2023/12/28 11:22:34;;;;;;;;;;;3.20;99.90;;;;;;5074749;28;20298;-75
2023/12/28 11:25:01;;;;;;;;;;;3.30;99.90;;;;;;5075023;28;19924;-75
2023/12/28 11:27:34;;;;;;;;;;;3.40;99.90;;;;;;5074518;28;19932;-75
2023/12/28 11:30:00;;;;;;;;;;;3.40;99.90;;;;;;5074655;28;19925;-75
2023/12/28 11:32:28;;;;;;;;;;;3.40;99.90;;;;;;5074242;28;20300;-75
2023/12/28 11:34:58;;;;;;;;;;;3.40;99.90;;;;;;5075502;28;19929;-75
2023/12/28 11:37:27;;;;;;;;;;;3.40;99.90;;;;;;5074377;28;19928;-74
2023/12/28 11:39:54;;;;;;;;;;;3.30;99.90;;;;;;5074206;28;19931;-75
2023/12/28 11:42:22;;;;;;;;;;;3.30;99.90;;;;;;5074345;28;20042;-75
2023/12/28 11:44:49;;;;;;;;;;;3.30;99.90;;;;;;5073941;28;20393;-75
2023/12/28 11:47:16;;;;;;;;;;;3.40;99.90;;;;;;5074221;28;19971;-75
2023/12/28 11:49:45;;;;;;;;;;;3.40;99.90;;;;;;5073883;28;20404;-74
2023/12/28 11:52:22;;;;;;;;;;;3.50;99.90;;;;;;5074471;28;20297;-76
2023/12/28 11:54:49;;;;;;;;;;;3.50;99.90;;;;;;5074198;28;19936;-74
2023/12/28 11:57:16;;;;;;;;;;;3.40;99.90;;;;;;5074527;28;19925;-75
2023/12/28 11:59:44;;;;;;;;;;;3.40;99.90;;;;;;5073228;28;21222;-73
2023/12/28 12:02:11;;;;;;;;;;;3.50;99.90;;;;;;5073971;28;19924;-75
2023/12/28 12:04:38;;;;;;;;;;;3.60;99.90;;;;;;5073914;28;19994;-74
2023/12/28 12:07:06;;;;;;;;;;;3.60;99.90;;;;;;5073987;28;19924;-74
2023/12/28 12:09:34;;;;;;;;;;;3.70;99.90;;;;;;5074123;28;20274;-74
2023/12/28 12:12:01;;;;;;;;;;;3.80;99.90;;;;;;5074398;28;20322;-73
2023/12/28 12:14:28;;;;;;;;;;;3.90;99.90;;;;;;5074006;28;19932;-74
2023/12/28 12:16:56;;;;;;;;;;;3.90;99.90;;;;;;5074004;28;20279;-74
2023/12/28 12:19:23;;;;;;;;;;;4.00;99.90;;;;;;5074166;28;19946;-74
2023/12/28 12:21:49;;;;;;;;;;;4.00;99.90;;;;;;5074508;28;19924;-74
2023/12/28 12:24:19;;;;;;;;;;;4.00;99.90;;;;;;5074079;28;19924;-74
2023/12/28 12:26:46;;;;;;;;;;;4.00;99.90;;;;;;5074355;28;19928;-74
2023/12/28 12:29:12;;;;;;;;;;;4.00;99.90;;;;;;5074449;28;19925;-74
2023/12/28 12:31:41;;;;;;;;;;;4.00;99.90;;;;;;5074064;28;19924;-74
2023/12/28 12:34:08;;;;;;;;;;;4.10;99.90;;;;;;5074045;28;20281;-74
2023/12/28 12:36:35;;;;;;;;;;;4.00;99.90;;;;;;5073629;28;19924;-74
2023/12/28 12:39:03;;;;;;;;;;;4.00;99.90;;;;;;5073930;28;19979;-75
2023/12/28 12:41:32;;;;;;;;;;;4.00;99.90;;;;;;5073552;28;19925;-75
2023/12/28 12:43:59;;;;;;;;;;;4.00;99.90;;;;;;5072972;28;20296;-74
2023/12/28 12:46:26;;;;;;;;;;;4.10;99.90;;;;;;5073222;28;19982;-74
2023/12/28 12:48:56;;;;;;;;;;;4.10;99.90;;;;;;5073203;28;19925;-74
2023/12/28 12:51:23;;;;;;;;;;;4.20;99.90;;;;;;5073484;28;19924;-75
2023/12/28 12:53:49;;;;;;;;;;;4.20;99.90;;;;;;5072991;28;20352;-75
2023/12/28 12:56:17;;;;;;;;;;;4.20;99.90;;;;;;5073368;28;19935;-75
2023/12/28 12:58:46;;;;;;;;;;;4.20;99.90;;;;;;5073630;28;19924;-75
2023/12/28 13:01:12;;;;;;;;;;;4.20;99.90;;;;;;5076163;28;19925;-75
2023/12/28 13:03:39;;;;;;;;;;;4.20;99.90;;;;;;5076907;28;19929;-75
2023/12/28 13:06:06;;;;;;;;;;;4.30;99.90;;;;;;5076697;28;19935;-75
2023/12/28 13:08:32;;;;;;;;;;;4.20;99.90;;;;;;5076464;28;19924;-75
2023/12/28 13:10:59;;;;;;;;;;;4.20;99.90;;;;;;5076870;28;19931;-75
2023/12/28 13:13:26;;;;;;;;;;;4.20;99.90;;;;;;5076851;28;20019;-75
2023/12/28 13:15:53;;;;;;;;;;;4.10;99.90;;;;;;5076873;28;19932;-75
2023/12/28 13:18:20;;;;;;;;;;;4.10;99.90;;;;;;5076731;28;19930;-75
2023/12/28 13:20:47;;;;;;;;;;;4.10;99.90;;;;;;5076683;28;19925;-75
2023/12/28 13:23:13;;;;;;;;;;;4.10;99.90;;;;;;5076304;28;20374;-75
2023/12/28 13:25:40;;;;;;;;;;;4.10;99.90;;;;;;5076238;28;20408;-75
2023/12/28 13:28:07;;;;;;;;;;;4.10;99.90;;;;;;5076527;28;19932;-75
2023/12/28 13:30:33;;;;;;;;;;;4.10;99.90;;;;;;5076535;28;19931;-75
2023/12/28 13:33:01;;;;;;;;;;;4.10;99.90;;;;;;5076134;28;20023;-75
2023/12/28 13:35:28;;;;;;;;;;;4.10;99.90;;;;;;5076695;28;19925;-75
2023/12/28 13:37:54;;;;;;;;;;;4.10;99.90;;;;;;5076171;28;19924;-75
2023/12/28 13:40:21;;;;;;;;;;;4.10;99.90;;;;;;5076447;28;19925;-75
2023/12/28 13:42:49;;;;;;;;;;;4.00;99.90;;;;;;5076819;28;19924;-75
2023/12/28 13:45:15;;;;;;;;;;;4.00;99.90;;;;;;5076194;28;20412;-75
2023/12/28 13:47:42;;;;;;;;;;;4.00;99.90;;;;;;5076038;28;20305;-75
2023/12/28 13:50:10;;;;;;;;;;;4.00;99.90;;;;;;5076037;28;19925;-75
2023/12/28 13:52:37;;;;;;;;;;;4.00;99.90;;;;;;5076466;28;19924;-75
2023/12/28 13:55:04;;;;;;;;;;;4.00;99.90;;;;;;5076065;28;19925;-76
2023/12/28 13:57:30;;;;;;;;;;;4.10;99.90;;;;;;5076010;28;19924;-74
2023/12/28 14:00:00;;;;;;;;;;;4.10;99.90;;;;;;5076699;28;19948;-74
2023/12/28 14:02:26;;;;;;;;;;;4.10;99.90;;;;;;5076459;28;20019;-74
2023/12/28 14:04:54;;;;;;;;;;;4.10;99.90;;;;;;5075880;28;19924;-74
2023/12/28 14:07:21;;;;;;;;;;;4.10;99.90;;;;;;5075813;28;19951;-74
2023/12/28 14:09:48;;;;;;;;;;;4.10;99.90;;;;;;5075609;28;19932;-74
2023/12/28 14:12:14;;;;;;;;;;;4.20;99.90;;;;;;5075497;28;19924;-75
2023/12/28 14:14:41;;;;;;;;;;;4.20;99.90;;;;;;5075530;28;19935;-75
2023/12/28 14:17:08;;;;;;;;;;;4.20;99.90;;;;;;5075566;28;19924;-75
2023/12/28 14:19:34;;;;;;;;;;;4.20;99.90;;;;;;5075207;28;20374;-74
2023/12/28 14:22:01;;;;;;;;;;;4.30;99.90;;;;;;5076041;28;19924;-74